CDT,Max TemperatureF,Mean TemperatureF,Min TemperatureF,Max Dew PointF,MeanDew PointF,Min DewpointF,Max Humidity, Mean Humidity, Min Humidity, Max Sea Level PressureIn, Mean Sea Level PressureIn, Min Sea Level PressureIn, Max VisibilityMiles, Mean VisibilityMiles, Min VisibilityMiles, Max Wind SpeedMPH, Mean Wind SpeedMPH, Max Gust SpeedMPH,PrecipitationIn, CloudCover, Events, WindDirDegrees
2013-7-1,82,71,60,63,59,54,94,68,37,29.92,29.85,29.79,10,10,7,13,2,17,0.00,2,,261
2013-7-2,80,70,60,63,59,54,94,68,39,30.06,29.99,29.90,10,9,5,14,2,20,0.04,2,,251
2013-7-3,80,72,64,66,63,59,88,76,48,30.13,30.09,30.05,10,9,3,9,1,16,0.09,4,Rain-Thunderstorm,131
2013-7-4,73,70,68,68,65,63,94,84,78,30.11,30.07,30.05,10,8,1,15,3,21,1.61,8,Rain,134
2013-7-5,77,73,69,68,66,64,88,82,65,30.14,30.11,30.06,10,9,4,10,5,20,0.10,7,Rain,144
2013-7-6,73,70,68,68,66,64,88,85,73,30.14,30.11,30.08,10,8,2,6,1,,0.46,6,Rain,152
2013-7-7,82,75,68,72,66,63,94,77,51,30.16,30.12,30.09,10,10,5,5,0,,0.03,7,Rain,217
2013-7-8,86,77,68,70,67,63,94,73,48,30.21,30.16,30.10,10,9,4,8,2,,0.02,4,Rain,172
2013-7-9,87,79,71,72,67,61,94,69,40,30.20,30.14,30.07,10,9,5,10,2,,0.00,4,,229
2013-7-10,89,79,69,72,68,64,88,70,43,30.10,30.03,29.94,10,9,2,17,3,31,0.82,2,Rain-Thunderstorm,246
2013-7-11,87,78,69,70,67,61,94,76,43,30.01,29.96,29.89,10,9,4,14,2,24,0.04,5,Rain-Thunderstorm,319
2013-7-12,82,73,64,68,61,54,94,66,39,30.00,29.97,29.93,10,9,0,14,4,18,0.00,2,,5
2013-7-13,86,73,60,66,60,55,88,65,35,30.07,30.01,29.97,10,10,10,9,2,,0.00,1,,130
2013-7-14,86,78,69,70,65,61,88,68,43,30.17,30.10,30.05,10,10,7,15,4,20,0.00,4,Rain,118
2013-7-15,87,80,73,70,63,59,88,61,40,30.28,30.23,30.17,10,10,10,13,5,20,0.01,5,Rain,126
2013-7-16,89,79,69,70,66,59,88,68,36,30.33,30.29,30.25,10,10,1,8,2,,0.00,2,,119
2013-7-17,91,80,68,72,67,59,94,69,34,30.32,30.25,30.18,10,9,0,10,1,,0.00,1,Fog-Rain,13
2013-7-18,89,80,71,70,66,59,88,67,36,30.21,30.15,30.06,10,10,10,8,1,,0.00,1,Thunderstorm,135
2013-7-19,89,78,68,70,65,59,88,64,36,30.13,30.07,29.98,10,10,5,8,1,,0.00,2,Thunderstorm,203
2013-7-20,87,78,69,70,65,59,88,66,38,30.05,30.00,29.92,10,10,5,12,2,16,0.00,1,Rain,233
2013-7-21,86,78,71,70,67,63,88,77,48,30.04,30.00,29.96,10,10,4,16,2,24,0.16,3,Rain-Thunderstorm,198
2013-7-22,78,74,69,70,66,61,94,76,57,29.99,29.97,29.92,10,10,7,13,4,17,0.01,5,Rain,232
2013-7-23,80,74,69,70,67,64,88,81,61,29.99,29.93,29.87,10,10,3,15,4,17,0.36,5,Rain-Thunderstorm,205
2013-7-24,82,75,68,70,67,63,94,77,51,29.94,29.90,29.86,10,9,2,8,1,,0.01,5,,312
2013-7-25,82,73,64,63,59,54,88,64,37,30.05,30.00,29.93,10,10,10,13,4,18,0.00,0,,347
2013-7-26,84,72,60,66,60,54,94,68,37,30.09,30.04,29.99,10,8,0,7,1,,0.00,1,Fog,302
2013-7-27,84,76,68,64,62,55,88,68,39,30.00,29.96,29.91,10,9,5,10,2,,0.00,2,,252
2013-7-28,80,72,64,64,60,55,88,68,42,30.10,30.03,29.96,10,10,7,8,2,,0.00,2,,3
2013-7-29,78,69,60,59,54,45,94,64,30,30.20,30.16,30.09,10,10,10,6,1,,0.00,0,,33
2013-7-30,87,73,59,70,60,54,88,69,33,30.21,30.16,30.09,10,10,2,14,1,23,0.40,2,Rain,304
2013-7-31,82,75,68,70,67,63,94,82,62,30.12,30.05,29.96,10,9,2,17,5,23,0.70,6,Rain-Thunderstorm,154